KMIE/MIE METAR and TAF weather

Enter ICAO airport designator
Station Type Date Time Source
KMIE METAR 2019/02/23 00:53 UTC NOAA

KMIE 230053Z 09005KT 6SM HZ CLR 02/M02 A3035 RMK AO2 SLP283 T00171017


Station Type Date Time Source
KMIE Decoded METAR 2019/02/23 00:53 UTC NOAA

MUNCIE DELAWARE JOHNSON, IN, United States (KMIE) 40-14N 85-24W 285M
Feb 22, 2019 - 07:53 PM EST / 2019.02.23 0053 UTC
Wind: from the E (090 degrees) at 6 MPH (5 KT):0
Visibility: 6 mile(s):0
Sky conditions: clear
Weather: haze
Temperature: 35.1 F (1.7 C)
Dew Point: 28.9 F (-1.7 C)
Relative Humidity: 78%
Pressure (altimeter): 30.35 in. Hg (1027 hPa)
ob: KMIE 230053Z 09005KT 6SM HZ CLR 02/M02 A3035 RMK AO2 SLP283 T00171017
cycle: 1

Station Type Date Time Source
KMIE TAF UTC NOAA

Error!


Example: see airport list